Time;durP1;ratioP1;P1;durP2;ratioP2;P2;SDS_P1;SDS_P2;PMS_P1;PMS_P2;Temp;Humidity;BMP_temperature;BMP_pressure;BME280_temperature;BME280_humidity;BME280_pressure;Samples;Min_cycle;Max_cycle;Signal;HPM_P1;HPM_P2
2022/02/10 00:13:56;;;;;;;1.50;1.40;;;;;;;;;;5052604;28;20256;-88
2022/02/10 00:17:05;;;;;;;1.58;1.42;;;;;;;;;;5110347;28;20278;-88
2022/02/10 00:20:03;;;;;;;1.58;1.38;;;;;;;;;;5110606;28;20192;-86
2022/02/10 00:22:39;;;;;;;1.45;1.35;;;;;;;;;;5110681;28;20636;-88
2022/02/10 00:25:46;;;;;;;1.70;1.60;;;;;;;;;;5110468;28;20184;-88
2022/02/10 00:34:16;;;;;;;1.20;1.20;;;;;;;;;;5046599;28;20763;-88
2022/02/10 00:36:56;;;;;;;1.45;1.35;;;;;;;;;;5105360;28;20337;-88
2022/02/10 00:39:39;;;;;;;1.60;1.50;;;;;;;;;;5110194;28;20234;-88
2022/02/10 00:42:07;;;;;;;1.60;1.50;;;;;;;;;;5110107;28;20195;-87
2022/02/10 00:44:34;;;;;;;2.50;2.30;;;;;;;;;;5110004;28;20206;-88
2022/02/10 00:47:03;;;;;;;2.50;1.90;;;;;;;;;;5110043;28;20222;-88
2022/02/10 00:49:31;;;;;;;2.38;2.17;;;;;;;;;;5109879;28;20218;-88
2022/02/10 00:51:58;;;;;;;2.55;2.15;;;;;;;;;;5109635;28;20219;-88
2022/02/10 00:54:27;;;;;;;1.75;1.65;;;;;;;;;;5109840;28;20648;-88
2022/02/10 00:56:57;;;;;;;1.90;1.80;;;;;;;;;;5109437;28;20231;-88
2022/02/10 00:59:35;;;;;;;1.92;1.63;;;;;;;;;;5109670;28;20559;-88
2022/02/10 01:06:56;;;;;;;1.67;1.58;;;;;;;;;;5111142;28;20878;-88
2022/02/10 01:11:00;;;;;;;1.80;1.70;;;;;;;;;;5097481;28;20671;-88
2022/02/10 01:13:45;;;;;;;1.30;1.20;;;;;;;;;;5095649;28;20196;-89
2022/02/10 01:24:34;;;;;;;1.45;1.35;;;;;;;;;;5095544;28;20183;-88
2022/02/10 01:29:45;;;;;;;2.05;1.50;;;;;;;;;;5050678;28;20200;-88
2022/02/10 01:32:13;;;;;;;1.40;1.23;;;;;;;;;;5096768;28;20200;-88
2022/02/10 01:34:46;;;;;;;2.00;1.90;;;;;;;;;;5106660;28;20206;-87
2022/02/10 01:37:14;;;;;;;1.60;1.50;;;;;;;;;;5096598;28;20183;-88
2022/02/10 01:39:46;;;;;;;1.98;1.77;;;;;;;;;;5095747;28;20207;-88
2022/02/10 02:04:22;;;;;;;1.67;1.58;;;;;;;;;;5094718;28;20199;-88
2022/02/10 02:06:54;;;;;;;2.00;1.55;;;;;;;;;;5094717;28;20303;-87
2022/02/10 02:09:22;;;;;;;1.70;1.60;;;;;;;;;;5094821;28;20234;-88
2022/02/10 02:11:52;;;;;;;2.28;2.08;;;;;;;;;;5094422;28;20199;-87
2022/02/10 02:14:21;;;;;;;1.88;1.77;;;;;;;;;;5094623;28;20210;-88
2022/02/10 02:16:52;;;;;;;1.85;1.75;;;;;;;;;;5094569;28;20256;-88
2022/02/10 02:19:20;;;;;;;2.55;1.85;;;;;;;;;;5093575;28;20177;-88
2022/02/10 02:21:49;;;;;;;1.63;1.52;;;;;;;;;;5094179;28;20667;-87
2022/02/10 02:24:22;;;;;;;2.42;2.22;;;;;;;;;;5094597;28;20208;-87
2022/02/10 02:26:52;;;;;;;2.22;2.13;;;;;;;;;;5094217;28;20278;-88
2022/02/10 02:29:27;;;;;;;3.88;2.72;;;;;;;;;;5094837;28;20232;-88
2022/02/10 02:31:58;;;;;;;3.80;3.47;;;;;;;;;;5094399;28;20617;-88
2022/02/10 02:37:32;;;;;;;6.05;4.10;;;;;;;;;;5072900;28;20282;-88
2022/02/10 03:05:11;;;;;;;4.18;3.75;;;;;;;;;;5093927;28;20340;-88
2022/02/10 03:07:45;;;;;;;4.05;3.65;;;;;;;;;;5093949;28;20180;-88
2022/02/10 03:10:34;;;;;;;7.85;4.70;;;;;;;;;;5093536;28;20226;-87
2022/02/10 03:13:03;;;;;;;5.55;4.30;;;;;;;;;;5093728;28;20188;-87
2022/02/10 03:15:37;;;;;;;4.13;3.72;;;;;;;;;;5093267;28;20220;-87
2022/02/10 03:18:22;;;;;;;7.82;6.20;;;;;;;;;;5093720;28;20279;-88
2022/02/10 03:21:14;;;;;;;7.22;6.18;;;;;;;;;;5093469;28;20189;-87
2022/02/10 04:00:10;;;;;;;4.85;4.45;;;;;;;;;;5092972;28;20203;-87
2022/02/10 04:08:25;;;;;;;4.00;3.70;;;;;;;;;;5079245;28;20196;-87
2022/02/10 04:13:56;;;;;;;3.67;3.38;;;;;;;;;;5067476;28;20277;-88
2022/02/10 04:16:27;;;;;;;3.35;3.15;;;;;;;;;;5092900;28;20220;-87
2022/02/10 04:21:54;;;;;;;3.63;3.33;;;;;;;;;;5074227;28;20199;-88
2022/02/10 04:24:36;;;;;;;4.45;4.05;;;;;;;;;;5092881;28;20222;-86
2022/02/10 04:27:10;;;;;;;6.88;6.25;;;;;;;;;;5092797;28;20219;-87
2022/02/10 04:44:35;;;;;;;5.03;3.47;;;;;;;;;;5069734;28;20249;-87
2022/02/10 05:01:00;;;;;;;6.80;6.18;;;;;;;;;;5093131;28;20208;-87
2022/02/10 05:07:02;;;;;;;7.03;5.60;;;;;;;;;;5061847;28;20762;-87
2022/02/10 05:15:38;;;;;;;6.53;5.93;;;;;;;;;;5096186;28;20555;-88
2022/02/10 05:23:56;;;;;;;6.43;5.63;;;;;;;;;;5096101;28;20191;-87
2022/02/10 05:32:16;;;;;;;7.47;6.72;;;;;;;;;;5095341;28;20269;-86
2022/02/10 05:34:49;;;;;;;8.38;6.32;;;;;;;;;;5095708;28;20283;-87
2022/02/10 05:37:18;;;;;;;8.38;6.97;;;;;;;;;;5095429;28;20233;-87
2022/02/10 05:39:48;;;;;;;7.28;6.55;;;;;;;;;;5095456;28;20210;-87
2022/02/10 05:45:08;;;;;;;6.72;6.03;;;;;;;;;;5084163;28;20194;-86
2022/02/10 05:47:59;;;;;;;7.10;6.40;;;;;;;;;;5099366;28;20176;-84
2022/02/10 05:51:01;;;;;;;8.98;6.70;;;;;;;;;;5104040;28;20207;-84
2022/02/10 05:53:51;;;;;;;10.13;7.45;;;;;;;;;;5102854;28;20227;-83
2022/02/10 05:56:23;;;;;;;7.05;6.35;;;;;;;;;;5102516;28;20220;-84
2022/02/10 05:59:20;;;;;;;5.88;5.38;;;;;;;;;;5101850;28;20225;-84
2022/02/10 06:02:28;;;;;;;6.40;5.05;;;;;;;;;;5102049;28;20659;-84
2022/02/10 06:49:27;;;;;;;7.38;5.32;;;;;;;;;;5099173;28;20589;-84
2022/02/10 06:52:01;;;;;;;4.72;4.30;;;;;;;;;;5102541;28;20201;-84
2022/02/10 06:54:44;;;;;;;6.15;5.35;;;;;;;;;;5101542;28;20207;-83
2022/02/10 06:57:53;;;;;;;6.20;5.68;;;;;;;;;;5102414;28;20226;-84
2022/02/10 07:03:31;;;;;;;9.98;6.72;;;;;;;;;;5099999;28;20215;-85
2022/02/10 07:06:14;;;;;;;6.70;5.80;;;;;;;;;;5098190;28;20228;-84
2022/02/10 07:08:58;;;;;;;5.50;5.00;;;;;;;;;;5100846;28;20196;-82
2022/02/10 07:11:46;;;;;;;6.88;5.45;;;;;;;;;;5100550;28;20204;-83
2022/02/10 07:47:40;;;;;;;3.78;3.47;;;;;;;;;;5098349;28;20261;-83
2022/02/10 07:50:34;;;;;;;4.63;4.25;;;;;;;;;;5097936;28;20208;-84
2022/02/10 07:53:23;;;;;;;4.10;3.35;;;;;;;;;;5096764;28;20211;-84
2022/02/10 07:56:24;;;;;;;5.78;3.92;;;;;;;;;;5097298;28;20258;-85
2022/02/10 07:59:13;;;;;;;5.00;4.50;;;;;;;;;;5097233;28;20227;-85
2022/02/10 08:05:13;;;;;;;4.18;3.83;;;;;;;;;;5096085;28;20215;-85
2022/02/10 08:57:54;;;;;;;5.70;4.95;;;;;;;;;;5099229;28;20211;-84
2022/02/10 09:03:18;;;;;;;6.13;5.50;;;;;;;;;;5100087;28;20258;-85
2022/02/10 09:06:04;;;;;;;10.65;5.70;;;;;;;;;;5099819;28;20666;-85
2022/02/10 09:09:07;;;;;;;6.00;5.30;;;;;;;;;;5098970;28;20287;-84
2022/02/10 09:56:09;;;;;;;5.28;4.78;;;;;;;;;;5094270;28;20239;-84
2022/02/10 09:58:47;;;;;;;5.43;4.57;;;;;;;;;;5098493;28;20247;-85
2022/02/10 10:01:26;;;;;;;5.65;4.70;;;;;;;;;;5100053;28;20204;-84
2022/02/10 10:04:02;;;;;;;4.38;3.97;;;;;;;;;;5098068;28;20239;-84
2022/02/10 10:12:30;;;;;;;5.40;3.97;;;;;;;;;;5094139;28;20204;-83
2022/02/10 10:15:35;;;;;;;4.20;3.83;;;;;;;;;;5097632;28;20286;-84
2022/02/10 10:18:29;;;;;;;4.90;4.45;;;;;;;;;;5097358;28;20261;-84
2022/02/10 10:21:12;;;;;;;2.92;2.63;;;;;;;;;;5096904;28;20280;-84
2022/02/10 10:23:58;;;;;;;4.72;4.07;;;;;;;;;;5096003;28;20204;-84
2022/02/10 10:26:50;;;;;;;5.45;4.47;;;;;;;;;;5096261;28;20249;-85
2022/02/10 10:49:45;;;;;;;5.10;4.50;;;;;;;;;;5095055;28;20207;-83
2022/02/10 10:52:28;;;;;;;5.80;4.28;;;;;;;;;;5094789;28;20581;-83
2022/02/10 10:55:12;;;;;;;4.30;3.65;;;;;;;;;;5094613;28;20725;-82
2022/02/10 10:57:41;;;;;;;3.88;3.58;;;;;;;;;;5095131;28;20231;-83
2022/02/10 11:23:56;;;;;;;4.57;3.78;;;;;;;;;;5094964;28;20261;-81
2022/02/10 11:38:16;;;;;;;5.78;4.70;;;;;;;;;;5095049;28;20223;-83
2022/02/10 11:44:49;;;;;;;5.72;4.45;;;;;;;;;;5088722;28;20230;-84
2022/02/10 12:36:49;;;;;;;3.78;2.80;;;;;;;;;;5070505;28;20245;-83
2022/02/10 13:28:06;;;;;;;4.07;3.10;;;;;;;;;;5056516;28;20283;-84
2022/02/10 14:09:50;;;;;;;3.42;3.13;;;;;;;;;;5037842;28;20213;-83
2022/02/10 14:15:16;;;;;;;3.65;3.35;;;;;;;;;;5046612;28;20280;-79
2022/02/10 14:17:48;;;;;;;3.67;3.30;;;;;;;;;;5046789;28;20210;-83
2022/02/10 14:20:36;;;;;;;3.05;2.85;;;;;;;;;;5051607;28;20276;-85
2022/02/10 14:23:19;;;;;;;3.05;2.72;;;;;;;;;;5064368;28;20208;-83
2022/02/10 14:25:53;;;;;;;2.88;2.47;;;;;;;;;;5064475;28;20225;-83
2022/02/10 14:28:22;;;;;;;2.70;2.50;;;;;;;;;;5056780;28;20205;-82
2022/02/10 14:30:51;;;;;;;3.30;3.00;;;;;;;;;;5056022;28;20198;-82
2022/02/10 14:33:23;;;;;;;4.65;4.20;;;;;;;;;;5063922;28;20225;-82
2022/02/10 14:35:55;;;;;;;3.85;3.55;;;;;;;;;;5062857;28;20253;-83
2022/02/10 14:38:38;;;;;;;4.00;3.60;;;;;;;;;;5063621;28;20212;-83
2022/02/10 14:41:31;;;;;;;3.38;3.08;;;;;;;;;;5063070;28;20205;-82
2022/02/10 15:12:23;;;;;;;3.95;3.65;;;;;;;;;;5063369;28;20260;-83
2022/02/10 15:17:46;;;;;;;3.50;3.20;;;;;;;;;;5044849;28;20232;-83
2022/02/10 16:18:42;;;;;;;1.48;1.38;;;;;;;;;;5042087;28;20720;-80
2022/02/10 16:21:10;;;;;;;1.75;1.65;;;;;;;;;;5048315;28;20209;-84
2022/02/10 16:23:37;;;;;;;1.80;1.70;;;;;;;;;;5059239;28;20209;-81
2022/02/10 16:26:12;;;;;;;1.50;1.40;;;;;;;;;;5061362;28;20245;-81
2022/02/10 16:28:41;;;;;;;1.58;1.48;;;;;;;;;;5061004;28;20299;-80
2022/02/10 16:31:10;;;;;;;1.48;1.40;;;;;;;;;;5057241;28;20603;-81
2022/02/10 16:33:41;;;;;;;1.55;1.45;;;;;;;;;;5060860;28;20232;-81
2022/02/10 16:36:16;;;;;;;1.70;1.60;;;;;;;;;;5059975;28;20244;-82
2022/02/10 16:38:44;;;;;;;1.50;1.40;;;;;;;;;;5059287;28;20215;-81
2022/02/10 16:41:14;;;;;;;1.40;1.30;;;;;;;;;;5059384;28;20209;-81
2022/02/10 16:43:42;;;;;;;1.27;1.20;;;;;;;;;;5060302;28;20209;-81
2022/02/10 16:46:11;;;;;;;0.95;0.95;;;;;;;;;;5059109;28;20257;-81
2022/02/10 16:48:38;;;;;;;1.20;1.20;;;;;;;;;;5058650;28;20205;-80
2022/02/10 16:51:09;;;;;;;1.38;1.33;;;;;;;;;;5050741;28;20206;-81
2022/02/10 16:53:39;;;;;;;0.88;0.88;;;;;;;;;;5040755;28;20236;-82
2022/02/10 16:56:11;;;;;;;1.05;1.05;;;;;;;;;;5041609;28;20230;-83
2022/02/10 16:58:46;;;;;;;1.25;1.10;;;;;;;;;;5040882;28;20639;-82
2022/02/10 17:04:33;;;;;;;0.90;0.90;;;;;;;;;;5015707;28;20229;-82
2022/02/10 17:16:11;;;;;;;1.10;1.10;;;;;;;;;;5058243;28;20261;-82
2022/02/10 17:18:48;;;;;;;0.95;0.95;;;;;;;;;;5048226;28;20253;-82
2022/02/10 17:21:28;;;;;;;1.10;1.10;;;;;;;;;;5054860;28;20206;-82
2022/02/10 17:26:55;;;;;;;0.93;0.93;;;;;;;;;;5065657;28;20293;-82
2022/02/10 17:29:40;;;;;;;0.80;0.80;;;;;;;;;;5062654;28;20209;-82
2022/02/10 17:32:19;;;;;;;0.80;0.80;;;;;;;;;;5065137;28;20241;-83
2022/02/10 17:35:16;;;;;;;0.90;0.90;;;;;;;;;;5065398;28;20465;-82
2022/02/10 17:46:09;;;;;;;2.15;1.95;;;;;;;;;;5046927;28;20239;-81
2022/02/10 17:51:32;;;;;;;2.45;1.83;;;;;;;;;;5049412;28;20213;-82
2022/02/10 17:54:03;;;;;;;1.80;1.50;;;;;;;;;;5045141;28;20245;-82
2022/02/10 17:56:32;;;;;;;1.50;1.40;;;;;;;;;;5046301;28;20222;-81
2022/02/10 17:58:59;;;;;;;2.53;2.33;;;;;;;;;;5050760;28;20201;-81
2022/02/10 18:01:28;;;;;;;2.65;2.35;;;;;;;;;;5060153;28;20209;-81
2022/02/10 18:03:57;;;;;;;2.20;2.10;;;;;;;;;;5060745;28;20206;-81
2022/02/10 18:06:27;;;;;;;2.55;2.10;;;;;;;;;;5059683;28;20222;-81
2022/02/10 18:14:29;;;;;;;2.10;2.00;;;;;;;;;;5052603;28;20754;-81
2022/02/10 18:17:01;;;;;;;2.65;2.45;;;;;;;;;;5038859;28;20253;-79
2022/02/10 18:19:34;;;;;;;2.20;2.00;;;;;;;;;;5040429;28;20210;-81
2022/02/10 18:22:30;;;;;;;1.75;1.65;;;;;;;;;;5041985;28;20206;-80
2022/02/10 18:25:09;;;;;;;1.77;1.67;;;;;;;;;;5040456;28;20286;-81
2022/02/10 18:27:42;;;;;;;1.70;1.50;;;;;;;;;;5042117;28;20209;-81
2022/02/10 18:30:21;;;;;;;1.70;1.60;;;;;;;;;;5047980;28;20263;-81
2022/02/10 19:06:27;;;;;;;2.33;2.13;;;;;;;;;;5053662;28;20232;-80
2022/02/10 19:09:05;;;;;;;2.65;2.45;;;;;;;;;;5053556;28;20211;-80
2022/02/10 19:11:33;;;;;;;2.92;2.72;;;;;;;;;;5053593;28;20594;-80
2022/02/10 19:14:04;;;;;;;2.47;2.28;;;;;;;;;;5049009;28;20201;-80
2022/02/10 19:16:31;;;;;;;4.88;3.47;;;;;;;;;;5034604;28;20284;-79
2022/02/10 19:18:59;;;;;;;3.50;3.20;;;;;;;;;;5034343;28;20733;-79
2022/02/10 19:21:26;;;;;;;3.58;2.55;;;;;;;;;;5045277;28;20209;-80
2022/02/10 19:23:55;;;;;;;3.65;3.35;;;;;;;;;;5052760;28;20209;-79
2022/02/10 19:26:23;;;;;;;2.72;2.53;;;;;;;;;;5052908;28;20583;-79
2022/02/10 19:28:50;;;;;;;2.50;2.40;;;;;;;;;;5053129;28;20209;-79
2022/02/10 19:31:20;;;;;;;2.05;1.85;;;;;;;;;;5050747;28;20214;-79
2022/02/10 19:33:50;;;;;;;1.90;1.80;;;;;;;;;;5053116;28;20300;-80
2022/02/10 19:36:18;;;;;;;2.28;2.15;;;;;;;;;;5047001;28;20276;-79
2022/02/10 19:38:45;;;;;;;2.22;2.00;;;;;;;;;;5037096;28;20276;-79
2022/02/10 19:41:14;;;;;;;2.42;2.20;;;;;;;;;;5035662;28;20198;-79
2022/02/10 19:43:42;;;;;;;3.05;2.05;;;;;;;;;;5033699;28;20296;-79
2022/02/10 19:46:11;;;;;;;3.35;2.40;;;;;;;;;;5033141;28;20222;-79
2022/02/10 19:48:39;;;;;;;2.63;2.25;;;;;;;;;;5033357;28;20210;-78
2022/02/10 19:51:07;;;;;;;2.40;2.03;;;;;;;;;;5045221;28;20209;-79
2022/02/10 19:53:35;;;;;;;2.28;2.08;;;;;;;;;;5051830;28;20194;-79
2022/02/10 19:56:02;;;;;;;2.47;2.08;;;;;;;;;;5032996;28;20230;-79
2022/02/10 19:58:31;;;;;;;3.00;2.70;;;;;;;;;;5032816;28;20217;-79
2022/02/10 20:01:01;;;;;;;2.63;2.42;;;;;;;;;;5045181;28;20301;-79
2022/02/10 20:03:31;;;;;;;3.00;2.08;;;;;;;;;;5051820;28;20681;-78
2022/02/10 20:06:00;;;;;;;1.88;1.70;;;;;;;;;;5045498;28;20218;-79
2022/02/10 20:08:28;;;;;;;2.30;2.20;;;;;;;;;;5032768;28;20206;-79
2022/02/10 20:10:56;;;;;;;2.45;2.25;;;;;;;;;;5032606;28;20202;-80
2022/02/10 20:13:25;;;;;;;2.05;1.95;;;;;;;;;;5032123;28;20700;-79
2022/02/10 20:15:54;;;;;;;3.63;2.75;;;;;;;;;;5032660;28;20234;-80
2022/02/10 20:18:22;;;;;;;2.53;2.33;;;;;;;;;;5031978;28;20217;-79
2022/02/10 20:20:53;;;;;;;2.00;1.90;;;;;;;;;;5039514;28;20209;-80
2022/02/10 20:23:21;;;;;;;2.50;2.30;;;;;;;;;;5051244;28;20209;-78
2022/02/10 20:25:48;;;;;;;1.95;1.85;;;;;;;;;;5051382;28;20225;-80
2022/02/10 20:28:19;;;;;;;2.00;1.90;;;;;;;;;;5051420;28;20212;-80
2022/02/10 20:30:46;;;;;;;3.30;2.45;;;;;;;;;;5042568;28;20202;-80
2022/02/10 20:33:17;;;;;;;3.90;1.85;;;;;;;;;;5031859;28;20220;-80
2022/02/10 20:35:46;;;;;;;2.20;2.00;;;;;;;;;;5032398;28;20238;-81
2022/02/10 20:38:16;;;;;;;1.83;1.73;;;;;;;;;;5032019;28;20206;-79
2022/02/10 20:40:46;;;;;;;2.47;2.25;;;;;;;;;;5032434;28;20206;-80
2022/02/10 20:43:13;;;;;;;3.13;2.92;;;;;;;;;;5032507;28;20675;-79
2022/02/10 20:45:40;;;;;;;2.83;2.55;;;;;;;;;;5032503;28;20249;-81
2022/02/10 20:48:09;;;;;;;2.20;2.10;;;;;;;;;;5032145;28;20211;-81
2022/02/10 20:50:38;;;;;;;2.88;2.67;;;;;;;;;;5041154;28;20285;-81
2022/02/10 20:53:05;;;;;;;2.55;2.33;;;;;;;;;;5050983;28;20205;-81
2022/02/10 20:55:32;;;;;;;1.90;1.80;;;;;;;;;;5055087;28;20233;-80
2022/02/10 20:58:00;;;;;;;2.22;2.10;;;;;;;;;;5055091;28;20665;-80
2022/02/10 21:00:30;;;;;;;2.15;2.05;;;;;;;;;;5050448;28;20205;-80
2022/02/10 21:02:58;;;;;;;3.53;2.60;;;;;;;;;;5054898;28;20214;-79
2022/02/10 21:05:33;;;;;;;4.05;2.80;;;;;;;;;;5054813;28;20224;-80
2022/02/10 21:08:10;;;;;;;4.38;2.40;;;;;;;;;;5055533;28;20211;-79
2022/02/10 21:10:38;;;;;;;2.88;2.50;;;;;;;;;;5055118;28;20677;-80
2022/02/10 21:13:08;;;;;;;3.35;3.05;;;;;;;;;;5054699;28;20556;-79
2022/02/10 21:15:45;;;;;;;4.00;2.83;;;;;;;;;;5054853;28;20478;-80
2022/02/10 21:18:14;;;;;;;2.65;2.42;;;;;;;;;;5055410;28;20812;-80
2022/02/10 21:20:44;;;;;;;2.60;2.40;;;;;;;;;;5045194;28;20202;-80
2022/02/10 21:23:22;;;;;;;2.72;2.53;;;;;;;;;;5035597;28;20233;-80
2022/02/10 21:25:52;;;;;;;3.85;2.60;;;;;;;;;;5035661;28;20226;-80
2022/02/10 21:28:23;;;;;;;2.15;2.05;;;;;;;;;;5035842;28;20238;-80
2022/02/10 21:30:54;;;;;;;1.83;1.73;;;;;;;;;;5042476;28;20210;-79
2022/02/10 21:33:28;;;;;;;2.35;2.15;;;;;;;;;;5035593;28;20228;-80
2022/02/10 21:38:45;;;;;;;2.78;2.58;;;;;;;;;;5004562;28;20214;-80
2022/02/10 21:55:32;;;;;;;2.05;1.95;;;;;;;;;;5029800;28;20227;-81
2022/02/10 22:01:36;;;;;;;2.92;2.72;;;;;;;;;;5034776;28;20625;-79
2022/02/10 22:09:23;;;;;;;2.15;1.95;;;;;;;;;;5035054;28;20205;-81
2022/02/10 22:17:44;;;;;;;2.80;2.60;;;;;;;;;;5034745;28;20361;-81
2022/02/10 22:20:15;;;;;;;2.88;2.67;;;;;;;;;;5034801;28;20207;-80
2022/02/10 22:23:03;;;;;;;2.58;2.38;;;;;;;;;;5034379;28;20202;-81
2022/02/10 22:25:30;;;;;;;2.28;2.08;;;;;;;;;;5034677;28;20320;-80
2022/02/10 22:28:08;;;;;;;2.38;2.20;;;;;;;;;;5034434;28;20214;-81
2022/02/10 22:30:46;;;;;;;2.30;2.03;;;;;;;;;;5037037;28;20307;-81
2022/02/10 22:33:25;;;;;;;2.00;1.90;;;;;;;;;;5038871;28;20216;-81
2022/02/10 22:35:55;;;;;;;2.05;1.85;;;;;;;;;;5038272;28;20226;-81
2022/02/10 22:38:23;;;;;;;2.05;1.95;;;;;;;;;;5039243;28;20286;-81
2022/02/10 22:41:02;;;;;;;1.23;1.13;;;;;;;;;;5035364;28;20206;-81
2022/02/10 22:43:32;;;;;;;1.70;1.60;;;;;;;;;;5035119;28;20619;-81
2022/02/10 22:45:59;;;;;;;1.60;1.50;;;;;;;;;;5034800;28;20261;-81
2022/02/10 22:48:27;;;;;;;1.38;1.35;;;;;;;;;;5034997;28;20216;-81
2022/02/10 22:50:54;;;;;;;1.15;1.00;;;;;;;;;;5034154;28;20550;-80
2022/02/10 22:53:21;;;;;;;1.08;1.08;;;;;;;;;;5034434;28;20198;-81
2022/02/10 22:55:49;;;;;;;1.30;1.20;;;;;;;;;;5034136;28;20245;-81
2022/02/10 22:58:17;;;;;;;1.75;1.10;;;;;;;;;;5033878;28;20726;-80
2022/02/10 23:00:49;;;;;;;1.52;1.42;;;;;;;;;;5034283;28;20210;-80
2022/02/10 23:03:18;;;;;;;1.13;1.08;;;;;;;;;;5033630;28;20761;-79
2022/02/10 23:05:45;;;;;;;0.90;0.90;;;;;;;;;;5034148;28;20257;-80
2022/02/10 23:08:13;;;;;;;1.55;0.98;;;;;;;;;;5034425;28;20202;-80
2022/02/10 23:10:44;;;;;;;1.10;1.10;;;;;;;;;;5034456;28;20206;-81
2022/02/10 23:13:13;;;;;;;0.93;0.90;;;;;;;;;;5033808;28;20248;-81
2022/02/10 23:15:40;;;;;;;1.20;1.10;;;;;;;;;;5033565;28;20222;-81
2022/02/10 23:18:12;;;;;;;4.55;1.60;;;;;;;;;;5033555;28;20222;-80
2022/02/10 23:20:40;;;;;;;2.13;1.40;;;;;;;;;;5034101;28;20198;-81
2022/02/10 23:23:09;;;;;;;0.95;0.95;;;;;;;;;;5033538;28;20637;-80
2022/02/10 23:25:38;;;;;;;1.02;1.02;;;;;;;;;;5033806;28;20238;-81
2022/02/10 23:28:09;;;;;;;0.90;0.90;;;;;;;;;;5033557;28;20213;-80
2022/02/10 23:30:36;;;;;;;1.08;1.05;;;;;;;;;;5033762;28;20280;-81
2022/02/10 23:33:11;;;;;;;1.13;1.00;;;;;;;;;;5033017;28;20233;-80
2022/02/10 23:38:30;;;;;;;1.30;1.20;;;;;;;;;;5033390;28;20272;-79
2022/02/10 23:41:47;;;;;;;1.20;1.10;;;;;;;;;;5033662;28;20206;-79
2022/02/10 23:44:22;;;;;;;1.75;1.42;;;;;;;;;;5033579;28;20202;-80
2022/02/10 23:46:49;;;;;;;1.23;1.13;;;;;;;;;;5033154;28;20709;-79
2022/02/10 23:49:19;;;;;;;1.02;1.02;;;;;;;;;;5032975;28;20206;-80
2022/02/10 23:51:54;;;;;;;1.42;1.35;;;;;;;;;;5033164;28;20588;-80
2022/02/10 23:54:22;;;;;;;1.40;1.40;;;;;;;;;;5033062;28;20766;-80
2022/02/10 23:56:54;;;;;;;1.40;1.30;;;;;;;;;;5032880;28;20225;-81
2022/02/10 23:59:33;;;;;;;1.88;1.48;;;;;;;;;;5037907;28;20210;-80
